Time;durP1;ratioP1;P1;durP2;ratioP2;P2;SDS_P1;SDS_P2;PMS_P1;PMS_P2;Temp;Humidity;BMP_temperature;BMP_pressure;BME280_temperature;BME280_humidity;BME280_pressure;Samples;Min_cycle;Max_cycle;Signal;HPM_P1;HPM_P2
2021/10/23 00:01:31;;;;;;;50.88;27.67;;;;;;;11.53;72.01;95760.16;5025610;28;20026;-73
2021/10/23 00:03:57;;;;;;;42.88;27.67;;;;;;;11.54;71.78;95755.63;5025867;28;20030;-73
2021/10/23 00:06:22;;;;;;;43.50;27.70;;;;;;;11.54;71.91;95759.16;5024199;28;20076;-73
2021/10/23 00:08:48;;;;;;;46.20;27.83;;;;;;;11.55;71.67;95759.97;5024558;28;20107;-72
2021/10/23 00:11:13;;;;;;;51.30;29.83;;;;;;;11.54;71.71;95759.16;5025810;28;20022;-72
2021/10/23 00:13:38;;;;;;;53.10;29.08;;;;;;;11.57;71.73;95756.13;5024286;28;20021;-73
2021/10/23 00:16:04;;;;;;;49.30;30.08;;;;;;;11.59;71.61;95761.31;5025853;28;20041;-71
2021/10/23 00:18:29;;;;;;;46.70;30.52;;;;;;;11.62;71.51;95763.66;5025307;28;20026;-73
2021/10/23 00:20:55;;;;;;;49.03;30.85;;;;;;;11.64;71.42;95760.78;5025877;28;20041;-73
2021/10/23 00:23:20;;;;;;;46.13;28.02;;;;;;;11.68;71.44;95746.00;5025090;28;20037;-73
2021/10/23 00:25:46;;;;;;;40.47;27.52;;;;;;;11.69;71.32;95756.56;5024370;28;20033;-73
2021/10/23 00:28:11;;;;;;;50.35;31.83;;;;;;;11.62;70.99;95760.97;5025224;28;20025;-72
2021/10/23 00:30:36;;;;;;;49.30;30.92;;;;;;;11.60;70.89;95753.09;5024301;28;20033;-72
2021/10/23 00:33:02;;;;;;;54.75;31.42;;;;;;;11.58;70.53;95748.88;5008272;28;20026;-72
2021/10/23 00:35:31;;;;;;;50.13;31.65;;;;;;;11.51;70.80;95746.06;5027625;28;20025;-73
2021/10/23 00:37:57;;;;;;;43.85;27.70;;;;;;;11.54;70.48;95756.47;5028064;28;20507;-71
2021/10/23 00:40:24;;;;;;;45.20;26.73;;;;;;;11.54;70.00;95748.44;5027257;28;20029;-74
2021/10/23 00:42:49;;;;;;;42.58;26.95;;;;;;;11.44;70.53;95745.94;5028015;28;20104;-72
2021/10/23 00:45:15;;;;;;;46.33;27.35;;;;;;;11.42;70.60;95747.97;5027234;28;20033;-72
2021/10/23 00:47:40;;;;;;;51.03;29.38;;;;;;;11.38;70.61;95739.41;5027872;28;20029;-72
2021/10/23 00:50:06;;;;;;;45.47;28.02;;;;;;;11.40;70.36;95739.22;5029147;28;20523;-72
2021/10/23 00:52:32;;;;;;;43.05;25.77;;;;;;;11.38;70.23;95735.91;5027429;28;20083;-74
2021/10/23 00:54:57;;;;;;;46.28;26.58;;;;;;;11.31;70.82;95729.53;5027879;28;20088;-73
2021/10/23 00:57:23;;;;;;;47.40;24.73;;;;;;;11.33;70.38;95732.91;5028211;28;20022;-73
2021/10/23 00:59:48;;;;;;;38.92;24.55;;;;;;;11.29;70.88;95731.56;5011259;28;20056;-73
2021/10/23 01:02:14;;;;;;;41.95;25.73;;;;;;;11.25;70.93;95723.03;5027060;28;20028;-72
2021/10/23 01:04:40;;;;;;;42.80;25.15;;;;;;;11.31;70.50;95726.84;5028912;28;20041;-73
2021/10/23 01:07:05;;;;;;;39.15;25.35;;;;;;;11.29;70.63;95731.56;5027239;28;20535;-72
2021/10/23 01:09:33;;;;;;;40.10;24.42;;;;;;;11.19;70.64;95734.44;5027095;28;20048;-72
2021/10/23 01:11:59;;;;;;;47.05;25.88;;;;;;;11.10;70.62;95731.81;4994977;28;20095;-72
2021/10/23 01:14:25;;;;;;;46.58;25.50;;;;;;;11.04;70.99;95729.81;5010288;28;20029;-72
2021/10/23 01:16:52;;;;;;;45.78;25.90;;;;;;;10.98;71.44;95730.47;5011040;28;20427;-72
2021/10/23 01:19:17;;;;;;;40.80;25.70;;;;;;;11.02;71.24;95731.84;5027817;28;20483;-73
2021/10/23 01:21:44;;;;;;;40.67;25.90;;;;;;;10.99;71.86;95732.19;5028594;28;20072;-73
2021/10/23 01:24:10;;;;;;;38.67;24.75;;;;;;;10.98;71.91;95736.69;5026728;28;20120;-72
2021/10/23 01:26:36;;;;;;;44.97;26.40;;;;;;;11.00;71.99;95734.69;5026825;28;20072;-72
2021/10/23 01:29:01;;;;;;;41.05;25.27;;;;;;;11.02;71.84;95742.56;5028631;28;20104;-73
2021/10/23 01:31:28;;;;;;;42.97;25.75;;;;;;;11.00;71.99;95733.84;5026566;28;20034;-72
2021/10/23 01:33:53;;;;;;;44.70;26.05;;;;;;;11.03;71.28;95730.81;5027100;28;20033;-73
2021/10/23 01:36:19;;;;;;;40.78;26.05;;;;;;;10.92;71.45;95737.38;5026225;28;20032;-71
2021/10/23 01:38:44;;;;;;;46.08;25.95;;;;;;;10.86;71.74;95744.28;5028185;28;20069;-72
2021/10/23 01:41:10;;;;;;;45.08;26.77;;;;;;;10.82;71.80;95737.56;5026262;28;20067;-73
2021/10/23 01:43:36;;;;;;;46.63;27.02;;;;;;;10.81;71.84;95735.91;5026522;28;20479;-73
2021/10/23 01:46:02;;;;;;;44.90;25.88;;;;;;;10.78;71.80;95743.47;5026025;28;20496;-73
2021/10/23 01:48:28;;;;;;;50.38;25.60;;;;;;;10.75;71.62;95747.34;5026430;28;20090;-73
2021/10/23 01:50:54;;;;;;;39.80;25.75;;;;;;;10.77;71.69;95749.84;5026974;28;20499;-72
2021/10/23 01:53:19;;;;;;;40.20;24.25;;;;;;;10.73;71.35;95752.03;5026226;28;20080;-73
2021/10/23 01:55:45;;;;;;;42.67;26.20;;;;;;;10.68;72.04;95747.16;5027747;28;20029;-73
2021/10/23 01:58:11;;;;;;;45.67;25.45;;;;;;;10.66;71.55;95748.31;5027670;28;20021;-73
2021/10/23 02:00:36;;;;;;;44.90;24.65;;;;;;;10.73;70.91;95755.56;5026409;28;20550;-73
2021/10/23 02:03:02;;;;;;;40.58;24.42;;;;;;;10.69;71.10;95751.50;5009418;28;20025;-73
2021/10/23 02:05:27;;;;;;;42.10;24.83;;;;;;;10.65;71.23;95750.19;5026105;28;20079;-72
2021/10/23 02:07:53;;;;;;;44.38;24.80;;;;;;;10.60;71.18;95756.06;5026576;28;20057;-73
2021/10/23 02:10:18;;;;;;;45.85;25.35;;;;;;;10.61;71.31;95756.88;5026061;28;20484;-74
2021/10/23 02:12:44;;;;;;;39.45;24.58;;;;;;;10.58;71.32;95744.66;5026145;28;20455;-72
2021/10/23 02:15:09;;;;;;;40.88;24.40;;;;;;;10.56;71.73;95749.34;5026968;28;20511;-72
2021/10/23 02:17:35;;;;;;;44.65;25.77;;;;;;;10.59;71.01;95753.56;5025944;28;20415;-72
2021/10/23 02:20:01;;;;;;;44.13;26.08;;;;;;;10.48;71.70;95758.25;5027259;28;20026;-72
2021/10/23 02:22:26;;;;;;;42.65;25.63;;;;;;;10.46;72.13;95767.44;5026188;28;20052;-72
2021/10/23 02:24:52;;;;;;;40.22;25.35;;;;;;;10.49;72.19;95770.63;5025551;28;20466;-72
2021/10/23 02:27:17;;;;;;;40.47;25.30;;;;;;;10.53;71.92;95770.31;5026135;28;20029;-72
2021/10/23 02:29:43;;;;;;;47.65;26.20;;;;;;;10.53;72.30;95770.31;5025797;28;20032;-73
2021/10/23 02:32:08;;;;;;;42.47;25.55;;;;;;;10.55;72.08;95773.66;5026897;28;20044;-71
2021/10/23 02:34:34;;;;;;;39.35;25.15;;;;;;;10.46;72.34;95770.97;5026056;28;20037;-72
2021/10/23 02:36:59;;;;;;;44.92;24.52;;;;;;;10.51;71.16;95767.81;5025040;28;20037;-72
2021/10/23 02:39:25;;;;;;;40.72;23.85;;;;;;;10.43;71.27;95771.28;5025783;28;20356;-72
2021/10/23 02:41:50;;;;;;;40.85;25.15;;;;;;;10.42;71.55;95768.75;5026212;28;20025;-73
2021/10/23 02:44:16;;;;;;;38.13;24.42;;;;;;;10.33;71.70;95770.63;5025550;28;20028;-72
2021/10/23 02:46:41;;;;;;;38.00;23.27;;;;;;;10.39;71.09;95775.31;5026744;28;20025;-72
2021/10/23 02:49:07;;;;;;;38.88;23.15;;;;;;;10.35;70.71;95766.75;5025473;28;20029;-72
2021/10/23 02:51:36;;;;;;;36.22;22.45;;;;;;;10.36;69.72;95764.91;5027200;28;20032;-72
2021/10/23 02:54:02;;;;;;;41.08;22.80;;;;;;;10.24;71.06;95772.44;5024700;28;20032;-73
2021/10/23 02:56:27;;;;;;;35.08;22.85;;;;;;;10.20;71.25;95780.00;5025009;28;20021;-72
2021/10/23 02:58:53;;;;;;;37.10;23.48;;;;;;;10.13;72.38;95777.16;5025431;28;20041;-73
2021/10/23 03:01:18;;;;;;;35.70;24.42;;;;;;;10.11;72.37;95778.28;5026846;28;20077;-73
2021/10/23 03:03:44;;;;;;;41.45;23.60;;;;;;;10.12;71.81;95777.31;5008178;28;20030;-73
2021/10/23 03:06:09;;;;;;;38.90;24.40;;;;;;;10.10;72.65;95779.31;5026780;28;20480;-72
2021/10/23 03:08:35;;;;;;;40.75;25.40;;;;;;;10.08;72.31;95782.16;5026648;28;20030;-73
2021/10/23 03:11:00;;;;;;;44.83;24.52;;;;;;;10.05;72.83;95779.81;5024841;28;20245;-72
2021/10/23 03:13:26;;;;;;;37.75;23.88;;;;;;;10.02;72.50;95777.47;5026730;28;20500;-72
2021/10/23 03:15:53;;;;;;;40.50;24.27;;;;;;;10.06;72.24;95769.94;5024398;28;20037;-73
2021/10/23 03:18:19;;;;;;;44.35;24.15;;;;;;;10.01;72.17;95779.28;5026529;28;20033;-73
2021/10/23 03:20:45;;;;;;;42.40;24.25;;;;;;;9.96;72.70;95778.13;4992114;28;20021;-73
2021/10/23 03:23:15;;;;;;;38.83;24.00;;;;;;;9.93;73.09;95775.78;5026261;28;20467;-72
2021/10/23 03:25:41;;;;;;;45.00;25.50;;;;;;;9.88;72.59;95766.38;5026362;28;20026;-73
2021/10/23 03:28:07;;;;;;;37.63;24.52;;;;;;;9.87;72.83;95778.09;5024486;28;20040;-72
2021/10/23 03:30:32;;;;;;;39.55;24.20;;;;;;;9.88;73.24;95784.31;5025245;28;20554;-73
2021/10/23 03:32:58;;;;;;;43.80;25.17;;;;;;;9.82;73.02;95782.28;5025620;28;20056;-73
2021/10/23 03:35:23;;;;;;;42.67;24.55;;;;;;;9.82;72.53;95772.38;5024864;28;20029;-72
2021/10/23 03:37:48;;;;;;;39.42;24.00;;;;;;;9.85;72.88;95781.97;5024342;28;20030;-73
2021/10/23 03:40:14;;;;;;;40.10;24.38;;;;;;;9.85;73.22;95781.97;5026095;28;20021;-72
2021/10/23 03:42:39;;;;;;;40.60;25.13;;;;;;;9.89;73.09;95783.28;5025775;28;20030;-73
2021/10/23 03:45:05;;;;;;;39.50;24.35;;;;;;;9.86;72.99;95780.94;5024555;28;20021;-71
2021/10/23 03:47:31;;;;;;;44.30;25.48;;;;;;;9.87;73.13;95793.31;5026603;28;20049;-72
2021/10/23 03:49:56;;;;;;;40.58;24.52;;;;;;;9.88;73.16;95795.03;5026010;28;20025;-71
2021/10/23 03:52:22;;;;;;;40.50;24.48;;;;;;;9.93;73.33;95783.81;5024921;28;20018;-72
2021/10/23 03:54:47;;;;;;;36.35;24.80;;;;;;;10.00;72.77;95793.69;5025555;28;20403;-73
2021/10/23 03:57:13;;;;;;;38.60;25.00;;;;;;;10.00;72.67;95787.50;5025944;28;20409;-73
2021/10/23 03:59:38;;;;;;;39.40;24.55;;;;;;;10.02;73.16;95791.72;5025482;28;20083;-72
2021/10/23 04:02:04;;;;;;;40.53;26.38;;;;;;;10.01;73.30;95795.38;5008144;28;20044;-73
2021/10/23 04:04:29;;;;;;;38.10;24.70;;;;;;;9.98;73.20;95797.53;5024562;28;20029;-72
2021/10/23 04:06:55;;;;;;;43.47;24.75;;;;;;;9.99;73.10;95797.41;5024407;28;20049;-72
2021/10/23 04:09:20;;;;;;;40.53;24.90;;;;;;;9.98;73.64;95795.69;5028424;28;20037;-72
2021/10/23 04:11:46;;;;;;;35.95;23.63;;;;;;;9.93;73.58;95792.66;5029386;28;20029;-72
2021/10/23 04:14:12;;;;;;;47.17;26.98;;;;;;;9.92;73.81;95796.34;5011799;28;20025;-73
2021/10/23 04:16:37;;;;;;;48.25;28.13;;;;;;;9.87;73.87;95796.00;5028039;28;20108;-73
2021/10/23 04:19:02;;;;;;;48.80;27.27;;;;;;;9.93;73.44;95800.69;5029667;28;20030;-73
2021/10/23 04:21:28;;;;;;;43.72;26.58;;;;;;;9.95;72.70;95795.19;5027969;28;20018;-73
2021/10/23 04:23:54;;;;;;;43.20;27.65;;;;;;;9.90;73.01;95795.69;5028058;28;20064;-71
2021/10/23 04:26:19;;;;;;;45.10;25.90;;;;;;;9.86;73.33;95797.00;5028011;28;20408;-73
2021/10/23 04:28:45;;;;;;;42.78;25.48;;;;;;;9.80;72.76;95798.50;5027919;28;20021;-73
2021/10/23 04:31:10;;;;;;;40.53;24.50;;;;;;;9.79;72.94;95795.97;5029444;28;20088;-72
2021/10/23 04:33:36;;;;;;;41.67;24.50;;;;;;;9.77;73.12;95810.38;5027559;28;20538;-73
2021/10/23 04:36:02;;;;;;;47.72;28.33;;;;;;;9.85;72.32;95800.72;5011658;28;20049;-73
2021/10/23 04:38:27;;;;;;;43.92;27.67;;;;;;;9.80;72.70;95805.72;5027340;28;20087;-73
2021/10/23 04:40:53;;;;;;;45.08;27.73;;;;;;;9.79;72.82;95810.22;5029379;28;20018;-72
2021/10/23 04:43:18;;;;;;;41.90;25.98;;;;;;;9.80;72.23;95811.06;5028800;28;20026;-72
2021/10/23 04:45:43;;;;;;;44.72;26.65;;;;;;;9.73;73.35;95813.56;5027696;28;20407;-73
2021/10/23 04:48:10;;;;;;;45.78;27.65;;;;;;;9.70;73.84;95812.06;5029388;28;20484;-73
2021/10/23 04:50:35;;;;;;;47.28;28.73;;;;;;;9.67;74.28;95801.66;5027417;28;20021;-72
2021/10/23 04:53:01;;;;;;;48.80;27.92;;;;;;;9.69;73.70;95813.03;5011280;28;20041;-72
2021/10/23 04:55:26;;;;;;;46.78;26.88;;;;;;;9.71;73.58;95812.88;5028184;28;20025;-72
2021/10/23 04:57:52;;;;;;;47.15;26.85;;;;;;;9.67;73.43;95817.72;5027771;28;20037;-72
2021/10/23 05:00:18;;;;;;;46.55;27.13;;;;;;;9.66;72.68;95816.03;5026929;28;20024;-73
2021/10/23 05:02:43;;;;;;;46.75;27.00;;;;;;;9.66;73.05;95823.25;5028907;28;20042;-73
2021/10/23 05:05:09;;;;;;;47.13;30.15;;;;;;;9.60;72.54;95825.56;5028718;28;20076;-72
2021/10/23 05:07:34;;;;;;;40.53;24.85;;;;;;;9.57;72.20;95825.03;5028502;28;20029;-73
2021/10/23 05:10:00;;;;;;;47.40;24.92;;;;;;;9.54;72.13;95828.03;5027793;28;20044;-72
2021/10/23 05:12:25;;;;;;;46.13;26.75;;;;;;;9.50;71.90;95828.38;5026691;28;20030;-72
2021/10/23 05:14:51;;;;;;;41.25;24.23;;;;;;;9.50;72.00;95844.44;5010915;28;20030;-73
2021/10/23 05:17:16;;;;;;;44.33;23.67;;;;;;;9.51;72.44;95838.06;5027992;28;20033;-73
2021/10/23 05:19:41;;;;;;;42.58;25.55;;;;;;;9.59;72.04;95845.28;5009954;28;20036;-73
2021/10/23 05:22:07;;;;;;;39.03;24.63;;;;;;;9.61;72.02;95845.13;5028075;28;20033;-72
2021/10/23 05:24:33;;;;;;;39.67;24.90;;;;;;;9.70;71.49;95848.69;5028466;28;20017;-73
2021/10/23 05:26:58;;;;;;;39.20;23.77;;;;;;;9.70;71.74;95854.91;5010796;28;20034;-72
2021/10/23 05:29:24;;;;;;;45.50;23.98;;;;;;;9.71;71.63;95848.53;5027727;28;20083;-73
2021/10/23 05:31:49;;;;;;;39.42;24.27;;;;;;;9.73;72.05;95846.53;5028472;28;20033;-72
2021/10/23 05:34:15;;;;;;;36.88;24.58;;;;;;;9.67;73.12;95857.06;5026350;28;20037;-72
2021/10/23 05:36:40;;;;;;;37.28;24.30;;;;;;;9.71;72.76;95851.22;5028096;28;20029;-73
2021/10/23 05:39:05;;;;;;;42.72;23.98;;;;;;;9.84;72.07;95865.97;5027779;28;20030;-73
2021/10/23 05:41:31;;;;;;;42.17;23.45;;;;;;;9.95;71.58;95862.16;5028338;28;20032;-72
2021/10/23 05:43:56;;;;;;;38.70;23.10;;;;;;;9.99;71.27;95867.06;5026618;28;20095;-74
2021/10/23 05:46:22;;;;;;;38.67;23.20;;;;;;;9.96;73.18;95861.19;5026613;28;20018;-73
2021/10/23 05:48:47;;;;;;;39.08;23.48;;;;;;;10.05;72.44;95865.56;5028510;28;20021;-73
2021/10/23 05:51:13;;;;;;;44.55;23.98;;;;;;;10.20;71.51;95863.09;5027525;28;20040;-73
2021/10/23 05:53:38;;;;;;;37.70;23.48;;;;;;;10.35;71.84;95874.00;5027996;28;20032;-72
2021/10/23 05:56:04;;;;;;;40.20;24.33;;;;;;;10.45;71.95;95881.91;5026142;28;20478;-73
2021/10/23 05:58:30;;;;;;;36.38;23.85;;;;;;;10.61;71.82;95886.47;5027768;28;20026;-73
2021/10/23 06:01:00;;;;;;;41.17;25.48;;;;;;;10.73;71.10;95886.16;5027433;28;20124;-72
2021/10/23 06:03:30;;;;;;;39.33;24.98;;;;;;;10.83;70.87;95891.38;5026237;28;20029;-73
2021/10/23 06:05:55;;;;;;;39.80;25.85;;;;;;;10.94;70.68;95888.34;5026476;28;20534;-74
2021/10/23 06:08:21;;;;;;;54.30;27.17;;;;;;;10.96;71.25;95891.69;5025955;28;20025;-73
2021/10/23 06:10:46;;;;;;;39.92;23.77;;;;;;;10.98;71.26;95895.03;5009716;28;20049;-72
2021/10/23 06:13:12;;;;;;;38.95;24.23;;;;;;;11.14;71.20;95906.78;5026894;28;20037;-73
2021/10/23 06:15:37;;;;;;;37.97;24.15;;;;;;;11.24;71.25;95907.44;5009326;28;20029;-72
2021/10/23 06:18:03;;;;;;;37.40;23.45;;;;;;;11.36;70.61;95907.94;5026780;28;20106;-72
2021/10/23 06:20:29;;;;;;;40.85;24.63;;;;;;;11.48;69.51;95904.88;5027635;28;20029;-73
2021/10/23 06:22:55;;;;;;;37.97;23.70;;;;;;;11.72;69.26;95913.91;5026059;28;20546;-73
2021/10/23 06:25:20;;;;;;;38.45;23.13;;;;;;;11.93;68.87;95913.31;5025968;28;20034;-72
2021/10/23 06:27:46;;;;;;;45.35;24.33;;;;;;;11.96;68.67;95909.47;5025912;28;20468;-72
2021/10/23 06:30:12;;;;;;;34.20;24.25;;;;;;;11.91;69.07;95915.38;5025426;28;20021;-72
2021/10/23 06:32:45;;;;;;;39.38;25.10;;;;;;;11.87;69.42;95917.56;5008754;28;20386;-72
2021/10/23 06:35:10;;;;;;;42.78;24.08;;;;;;;11.87;69.37;95927.47;5025166;28;20037;-72
2021/10/23 06:37:36;;;;;;;36.75;24.05;;;;;;;11.94;69.05;95925.78;5025895;28;20022;-72
2021/10/23 06:40:01;;;;;;;36.80;23.92;;;;;;;11.94;69.88;95933.84;5026542;28;20026;-73
2021/10/23 06:42:26;;;;;;;41.85;25.38;;;;;;;11.97;69.96;95933.50;5027245;28;20022;-73
2021/10/23 06:44:52;;;;;;;39.22;24.55;;;;;;;11.96;70.22;95937.16;5025549;28;20413;-72
2021/10/23 06:47:17;;;;;;;41.58;24.50;;;;;;;11.96;70.30;95942.53;5025243;28;20032;-73
2021/10/23 06:49:43;;;;;;;37.35;24.42;;;;;;;12.05;69.92;95945.22;5009081;28;20037;-73
2021/10/23 06:52:08;;;;;;;38.67;24.00;;;;;;;12.04;70.76;95948.91;5008576;28;20021;-72
2021/10/23 06:54:35;;;;;;;37.97;24.48;;;;;;;12.04;71.10;95938.16;5026687;28;20037;-73
2021/10/23 06:57:00;;;;;;;38.00;23.92;;;;;;;12.07;70.81;95949.41;5025107;28;20040;-72
2021/10/23 06:59:25;;;;;;;40.63;25.90;;;;;;;12.09;71.27;95950.09;5026823;28;20840;-73
2021/10/23 07:01:51;;;;;;;41.35;26.02;;;;;;;12.19;70.90;95952.56;5026479;28;20519;-73
2021/10/23 07:04:16;;;;;;;41.10;26.08;;;;;;;12.28;70.57;95953.41;5026332;28;20095;-73
2021/10/23 07:06:42;;;;;;;43.40;27.85;;;;;;;12.38;70.53;95949.66;5026676;28;20083;-73
2021/10/23 07:09:07;;;;;;;46.85;27.80;;;;;;;12.44;70.79;95955.19;5024588;28;20029;-73
2021/10/23 07:11:33;;;;;;;44.30;27.35;;;;;;;12.50;70.47;95953.63;5008808;28;20026;-73
2021/10/23 07:13:58;;;;;;;41.15;25.90;;;;;;;12.57;69.73;95951.06;5025623;28;20084;-72
2021/10/23 07:16:23;;;;;;;44.63;27.02;;;;;;;12.62;70.47;95948.69;5026422;28;20044;-73
2021/10/23 07:18:49;;;;;;;40.50;25.63;;;;;;;12.71;69.35;95949.47;5024664;28;20028;-74
2021/10/23 07:21:14;;;;;;;40.13;25.05;;;;;;;12.76;69.47;95962.38;5024827;28;20029;-72
2021/10/23 07:23:40;;;;;;;43.95;26.20;;;;;;;12.81;69.81;95963.53;5026411;28;20025;-74
2021/10/23 07:26:05;;;;;;;41.58;27.67;;;;;;;12.84;69.96;95960.50;5025754;28;20033;-73
2021/10/23 07:28:31;;;;;;;41.60;25.73;;;;;;;12.89;69.76;95959.94;5025268;28;20458;-73
2021/10/23 07:30:56;;;;;;;43.45;26.65;;;;;;;12.97;69.50;95956.38;5025548;28;20113;-73
2021/10/23 07:33:21;;;;;;;45.22;27.30;;;;;;;13.04;70.90;95959.19;5024944;28;20037;-73
2021/10/23 07:35:47;;;;;;;43.13;26.80;;;;;;;13.12;69.76;95958.28;5024288;28;20044;-75
2021/10/23 07:38:12;;;;;;;40.72;24.65;;;;;;;13.23;68.57;95955.97;5008358;28;20025;-75
2021/10/23 07:40:38;;;;;;;37.08;24.67;;;;;;;13.27;68.88;95961.84;5024803;28;20013;-73
2021/10/23 07:43:03;;;;;;;32.75;23.17;;;;;;;13.37;68.64;95958.91;5026263;28;20022;-73
2021/10/23 07:45:29;;;;;;;38.63;24.48;;;;;;;13.46;68.41;95959.69;5029579;28;20037;-76
2021/10/23 07:47:54;;;;;;;36.17;23.67;;;;;;;13.57;68.39;95969.22;5028859;28;20144;-76
2021/10/23 07:50:19;;;;;;;34.90;23.58;;;;;;;13.56;68.26;95964.81;5030388;28;20029;-72
2021/10/23 07:52:46;;;;;;;35.67;23.50;;;;;;;13.67;67.35;95959.00;5028357;28;20029;-73
2021/10/23 07:55:11;;;;;;;34.72;22.23;;;;;;;13.76;66.68;95967.84;5030051;28;20021;-73
2021/10/23 07:57:37;;;;;;;29.70;21.10;;;;;;;13.84;66.67;95964.22;5029599;28;20024;-74
2021/10/23 08:00:05;;;;;;;29.95;21.25;;;;;;;13.89;66.81;95963.69;5028622;28;20026;-73
2021/10/23 08:02:30;;;;;;;30.90;21.00;;;;;;;14.00;66.54;95965.06;5028880;28;20029;-73
2021/10/23 08:04:56;;;;;;;29.77;20.10;;;;;;;14.13;65.32;95962.56;5029477;28;20048;-75
2021/10/23 08:07:21;;;;;;;33.83;20.55;;;;;;;14.17;65.26;95960.34;5030243;28;20045;-74
2021/10/23 08:09:47;;;;;;;31.08;20.30;;;;;;;14.26;65.18;95971.88;5029449;28;20022;-73
2021/10/23 08:12:12;;;;;;;27.25;19.58;;;;;;;14.26;65.37;95966.47;5028402;28;20018;-74
2021/10/23 08:14:38;;;;;;;26.67;19.00;;;;;;;14.29;65.52;95972.34;5029191;28;20033;-74
2021/10/23 08:17:04;;;;;;;25.75;16.48;;;;;;;14.37;64.95;95970.53;5012070;28;20030;-73
2021/10/23 08:19:29;;;;;;;22.73;15.05;;;;;;;14.46;63.78;95975.66;5011704;28;20032;-74
2021/10/23 08:21:54;;;;;;;27.83;15.93;;;;;;;14.54;63.62;95973.88;5028265;28;20037;-72
2021/10/23 08:24:20;;;;;;;29.05;16.38;;;;;;;14.58;63.72;95970.63;5029644;28;20083;-76
2021/10/23 08:26:45;;;;;;;22.80;15.75;;;;;;;14.67;62.82;95970.50;5027955;28;20111;-73
2021/10/23 08:29:14;;;;;;;23.27;16.27;;;;;;;14.77;62.63;95976.44;5029485;28;20021;-72
2021/10/23 08:31:42;;;;;;;30.70;15.68;;;;;;;14.87;62.32;95978.03;5027642;28;20033;-73
2021/10/23 08:34:07;;;;;;;28.50;15.52;;;;;;;14.95;62.12;95973.34;5011984;28;20026;-73
2021/10/23 08:36:33;;;;;;;22.77;14.35;;;;;;;14.98;62.33;95980.22;5027684;28;20553;-73
2021/10/23 08:38:58;;;;;;;28.40;14.70;;;;;;;15.03;62.20;95988.59;5027930;28;20041;-73
2021/10/23 08:41:24;;;;;;;24.95;14.00;;;;;;;15.06;61.79;95982.81;5011384;28;20550;-72
2021/10/23 08:43:50;;;;;;;24.65;14.52;;;;;;;15.09;62.14;95981.56;5011103;28;20032;-76
2021/10/23 08:46:21;;;;;;;22.08;13.63;;;;;;;15.18;61.88;95971.50;5028010;28;20409;-74
2021/10/23 08:48:48;;;;;;;21.90;12.60;;;;;;;15.23;62.00;95987.13;5011413;28;20154;-73
2021/10/23 08:51:16;;;;;;;21.20;12.55;;;;;;;15.28;61.37;95990.91;5011453;28;20033;-73
2021/10/23 08:53:41;;;;;;;23.80;13.07;;;;;;;15.32;62.00;95983.25;5027370;28;20017;-72
2021/10/23 08:56:07;;;;;;;21.33;12.20;;;;;;;15.40;60.85;95982.28;5027796;28;20056;-73
2021/10/23 08:58:33;;;;;;;15.43;10.85;;;;;;;15.48;61.74;95984.00;5011133;28;20113;-74
2021/10/23 09:00:59;;;;;;;15.38;10.77;;;;;;;15.51;61.02;95972.84;5010962;28;20108;-73
2021/10/23 09:03:25;;;;;;;17.33;10.25;;;;;;;15.66;61.15;95987.09;5028898;28;20435;-71
2021/10/23 09:05:50;;;;;;;11.85;9.52;;;;;;;15.81;60.30;95980.75;5026863;28;20495;-75
2021/10/23 09:08:16;;;;;;;19.70;10.20;;;;;;;15.86;60.49;95981.00;5027653;28;20032;-72
2021/10/23 09:10:51;;;;;;;12.40;8.88;;;;;;;15.96;59.97;95983.34;5010430;28;20029;-74
2021/10/23 09:13:30;;;;;;;13.93;8.52;;;;;;;15.99;59.80;95991.09;5027513;28;20076;-74
2021/10/23 09:15:56;;;;;;;11.32;8.40;;;;;;;16.08;59.58;95978.25;5028521;28;20525;-73
2021/10/23 09:18:42;;;;;;;13.02;8.43;;;;;;;16.17;59.35;95971.66;5010594;28;20499;-73
2021/10/23 09:21:17;;;;;;;20.25;9.05;;;;;;;16.22;60.33;95979.16;5011065;28;20044;-72
2021/10/23 09:23:43;;;;;;;14.27;8.20;;;;;;;16.31;59.80;95982.56;5026580;28;20501;-73
2021/10/23 09:26:10;;;;;;;25.45;8.77;;;;;;;16.35;59.49;95977.56;5027194;28;20487;-74
2021/10/23 09:28:35;;;;;;;16.77;7.70;;;;;;;16.39;59.23;95978.84;5026534;28;20057;-74
2021/10/23 09:31:00;;;;;;;17.30;7.53;;;;;;;16.43;58.32;95980.94;5026790;28;20107;-72
2021/10/23 09:33:27;;;;;;;11.85;8.02;;;;;;;16.44;58.03;95977.19;5026916;28;20045;-74
2021/10/23 09:35:55;;;;;;;11.93;7.78;;;;;;;16.43;58.01;95975.53;5010494;28;20029;-74
2021/10/23 09:38:22;;;;;;;9.15;7.43;;;;;;;16.44;58.16;95984.50;5010959;28;20029;-73
2021/10/23 09:40:50;;;;;;;14.82;7.88;;;;;;;16.46;58.22;95978.91;5026217;28;20064;-73
2021/10/23 09:43:22;;;;;;;12.00;8.02;;;;;;;16.43;58.58;95978.25;5026774;28;20025;-73
2021/10/23 09:45:57;;;;;;;12.90;8.30;;;;;;;16.42;58.44;95976.59;5026123;28;20061;-74
2021/10/23 09:48:40;;;;;;;11.90;7.40;;;;;;;16.43;58.44;95980.94;5028209;28;20106;-74
2021/10/23 09:51:26;;;;;;;10.32;7.97;;;;;;;16.39;58.84;95979.69;5027206;28;20255;-73
2021/10/23 09:53:53;;;;;;;12.23;8.30;;;;;;;16.38;58.61;95983.41;5025606;28;20033;-74
2021/10/23 09:56:21;;;;;;;11.88;7.82;;;;;;;16.35;58.86;95975.69;5010111;28;20116;-72
2021/10/23 09:58:56;;;;;;;16.83;8.18;;;;;;;16.36;58.95;95971.13;5009766;28;20822;-73
2021/10/23 10:01:41;;;;;;;17.33;8.80;;;;;;;16.37;59.20;95968.22;5026277;28;20108;-72
2021/10/23 10:04:08;;;;;;;13.43;8.27;;;;;;;16.39;59.12;95963.47;5010398;28;20029;-73
2021/10/23 10:06:38;;;;;;;14.43;9.13;;;;;;;16.48;58.95;95964.09;5025197;28;20419;-74
2021/10/23 10:09:05;;;;;;;13.38;9.07;;;;;;;16.48;59.52;95960.56;4993906;28;20450;-73
2021/10/23 10:11:31;;;;;;;14.02;9.55;;;;;;;16.54;59.30;95963.28;5025859;28;20053;-73
2021/10/23 10:13:56;;;;;;;12.35;8.60;;;;;;;16.55;59.07;95962.28;5026283;28;20492;-74
2021/10/23 10:16:24;;;;;;;10.90;8.52;;;;;;;16.58;58.92;95957.47;5026190;28;20037;-73
2021/10/23 10:18:50;;;;;;;11.80;8.35;;;;;;;16.58;58.60;95955.59;5027061;28;20508;-72
2021/10/23 10:21:17;;;;;;;11.68;8.55;;;;;;;16.60;58.81;95953.53;5026670;28;20301;-73
2021/10/23 10:23:44;;;;;;;15.40;9.70;;;;;;;16.59;58.77;95957.28;5025571;28;20045;-74
2021/10/23 10:26:23;;;;;;;11.00;8.05;;;;;;;16.58;59.11;95958.31;5026066;28;20041;-73
2021/10/23 10:29:26;;;;;;;11.85;8.55;;;;;;;16.59;58.73;95962.69;5026703;28;20072;-73
2021/10/23 10:32:19;;;;;;;12.38;8.85;;;;;;;16.63;58.63;95961.25;5009896;28;20383;-73
2021/10/23 10:43:06;;;;;;;13.75;8.23;;;;;;;16.62;58.41;95978.53;5027312;28;20034;-72
2021/10/23 10:45:38;;;;;;;14.07;8.35;;;;;;;16.63;58.58;95974.81;5024833;28;20568;-73
2021/10/23 10:48:40;;;;;;;12.68;8.75;;;;;;;16.62;58.59;95967.69;5026847;28;20026;-73
2021/10/23 10:51:11;;;;;;;13.25;8.07;;;;;;;16.63;58.55;95963.97;5025535;28;20415;-73
2021/10/23 10:53:39;;;;;;;9.70;7.82;;;;;;;16.61;58.78;95959.78;5026471;28;20028;-74
2021/10/23 10:56:06;;;;;;;10.48;8.00;;;;;;;16.65;59.18;95967.28;5026812;28;20057;-73
2021/10/23 10:58:53;;;;;;;13.02;7.63;;;;;;;16.63;59.35;95973.97;5008841;28;20021;-73
2021/10/23 11:01:20;;;;;;;9.70;7.03;;;;;;;16.60;59.07;95964.38;5025558;28;20574;-73
2021/10/23 11:03:48;;;;;;;11.77;7.57;;;;;;;16.58;59.30;95969.16;5026505;28;20035;-73
2021/10/23 11:09:12;;;;;;;13.25;8.82;;;;;;;16.42;59.72;95979.28;5026646;28;20037;-73
2021/10/23 11:11:43;;;;;;;19.88;8.30;;;;;;;16.30;59.90;95962.78;5026101;28;20052;-73
2021/10/23 11:14:36;;;;;;;12.98;8.15;;;;;;;16.19;60.58;95974.16;5024951;28;20512;-73
2021/10/23 11:17:01;;;;;;;13.03;8.83;;;;;;;16.18;61.00;95972.50;5025352;28;20037;-73
2021/10/23 11:19:30;;;;;;;14.57;9.77;;;;;;;16.13;61.27;95980.38;5025406;28;20033;-73
2021/10/23 11:21:59;;;;;;;13.70;9.60;;;;;;;16.11;61.78;95977.03;5026537;28;20036;-73
2021/10/23 11:24:26;;;;;;;14.60;9.43;;;;;;;16.09;61.92;95984.53;5025859;28;20108;-72
2021/10/23 11:26:55;;;;;;;13.43;9.40;;;;;;;16.07;62.01;95982.00;5025140;28;20018;-73
2021/10/23 11:29:22;;;;;;;14.73;9.05;;;;;;;16.09;61.96;95984.53;5008472;28;20033;-73